createdAt,value
2017-09-03T00:00:32.490Z,-2.22
2017-09-03T00:01:32.510Z,-2.23
2017-09-03T00:02:32.529Z,-2.32
2017-09-03T00:03:32.552Z,-2.26
2017-09-03T00:04:32.571Z,-2.25
2017-09-03T00:05:32.592Z,-2.32
2017-09-03T00:06:32.614Z,-2.23
2017-09-03T00:07:32.638Z,-2.25
2017-09-03T00:08:32.659Z,-2.26
2017-09-03T00:09:32.677Z,-2.23
2017-09-03T00:10:32.699Z,-2.22
2017-09-03T00:11:32.720Z,-2.34
2017-09-03T00:12:32.744Z,-2.33
2017-09-03T00:13:32.763Z,-2.26
2017-09-03T00:14:32.833Z,-2.33
2017-09-03T00:15:32.805Z,-2.33
2017-09-03T00:16:32.831Z,-2.32
2017-09-03T00:17:32.847Z,-2.22
2017-09-03T00:18:32.872Z,-2.22
2017-09-03T00:19:32.891Z,-2.33
2017-09-03T00:20:32.914Z,-2.26
2017-09-03T00:21:32.933Z,-2.23
2017-09-03T00:22:32.962Z,-2.25
2017-09-03T00:23:32.974Z,-2.32
2017-09-03T00:24:32.997Z,-2.26
2017-09-03T00:25:33.020Z,-2.28
2017-09-03T00:26:33.042Z,-2.32
2017-09-03T00:27:33.064Z,-2.28
2017-09-03T00:28:33.084Z,-2.28
2017-09-03T00:29:33.105Z,-2.25
2017-09-03T00:30:33.127Z,-2.25
2017-09-03T00:31:33.150Z,-2.23
2017-09-03T00:32:33.169Z,-2.26
2017-09-03T00:33:33.187Z,-2.32
2017-09-03T00:34:33.210Z,-2.23
2017-09-03T00:35:33.231Z,-2.28
2017-09-03T00:36:33.252Z,-2.33
2017-09-03T00:37:33.273Z,-2.28
2017-09-03T00:38:33.294Z,-2.25
2017-09-03T00:39:33.316Z,-2.23
2017-09-03T00:40:33.338Z,-2.28
2017-09-03T00:41:33.658Z,-2.22
2017-09-03T00:42:33.381Z,-2.22
2017-09-03T00:43:33.402Z,-2.32
2017-09-03T00:44:33.423Z,-2.26
2017-09-03T00:45:33.446Z,-2.22
2017-09-03T00:46:33.467Z,-2.28
2017-09-03T00:47:33.485Z,-2.32
2017-09-03T00:48:33.511Z,-2.23
2017-09-03T00:49:33.529Z,-2.26
2017-09-03T00:50:33.555Z,-2.22
2017-09-03T00:51:33.574Z,-2.20
2017-09-03T00:52:33.595Z,-2.28
2017-09-03T00:53:33.614Z,-2.26
2017-09-03T00:54:33.636Z,-2.32
2017-09-03T00:55:33.661Z,-2.34
2017-09-03T00:56:33.678Z,-2.32
2017-09-03T00:57:33.699Z,-2.34
2017-09-03T00:58:33.723Z,-2.28
2017-09-03T00:59:33.743Z,-2.29
2017-09-03T01:00:33.766Z,-2.32
2017-09-03T01:01:33.790Z,-2.29
2017-09-03T01:02:33.809Z,-2.33
2017-09-03T01:03:33.831Z,-2.29
2017-09-03T01:04:33.852Z,-2.20
2017-09-03T01:05:33.873Z,-2.20
2017-09-03T01:06:33.894Z,-2.34
2017-09-03T01:07:33.913Z,-2.20
2017-09-03T01:08:33.938Z,-2.28
2017-09-03T01:09:33.955Z,-2.26
2017-09-03T01:10:33.977Z,-2.22
2017-09-03T01:11:33.998Z,-2.32
2017-09-03T01:12:34.023Z,-2.34
2017-09-03T01:13:34.042Z,-2.28
2017-09-03T01:14:34.069Z,-2.22
2017-09-03T01:15:34.087Z,-2.33
2017-09-03T01:16:34.106Z,-2.22
2017-09-03T01:17:34.129Z,-2.28
2017-09-03T01:18:34.150Z,-2.22
2017-09-03T01:19:34.171Z,-2.34
2017-09-03T01:20:34.193Z,-2.33
2017-09-03T01:21:34.222Z,-2.33
2017-09-03T01:22:34.232Z,-2.33
2017-09-03T01:23:34.256Z,-2.33
2017-09-03T01:24:34.275Z,-2.39
2017-09-03T01:25:34.298Z,-2.33
2017-09-03T01:26:34.319Z,-2.33
2017-09-03T01:27:34.339Z,-2.37
2017-09-03T01:28:34.362Z,-2.33
2017-09-03T01:29:34.380Z,-2.36
2017-09-03T01:30:34.403Z,-2.34
2017-09-03T01:31:34.423Z,-2.29
2017-09-03T01:32:34.444Z,-2.33
2017-09-03T01:33:34.463Z,-2.37
2017-09-03T01:34:34.487Z,-2.37
2017-09-03T01:35:34.506Z,-2.40
2017-09-03T01:36:34.528Z,-2.36
2017-09-03T01:37:34.548Z,-2.50
2017-09-03T01:38:34.571Z,-2.44
2017-09-03T01:39:34.594Z,-2.44
2017-09-03T01:40:34.611Z,-2.48
2017-09-03T01:41:34.635Z,-2.50
2017-09-03T01:42:34.655Z,-2.45
2017-09-03T01:43:34.673Z,-2.48
2017-09-03T01:44:34.698Z,-2.55
2017-09-03T01:45:34.719Z,-2.54
2017-09-03T01:46:34.736Z,-2.48
2017-09-03T01:47:34.760Z,-2.57
2017-09-03T01:48:34.780Z,-2.48
2017-09-03T01:49:34.802Z,-2.61
2017-09-03T01:50:34.823Z,-2.57
2017-09-03T01:51:34.840Z,-2.62
2017-09-03T01:52:34.861Z,-2.63
2017-09-03T01:53:34.882Z,-2.55
2017-09-03T01:54:34.906Z,-2.54
2017-09-03T01:55:34.927Z,-2.52
2017-09-03T01:56:34.945Z,-2.62
2017-09-03T01:57:34.965Z,-2.62
2017-09-03T01:58:34.989Z,-2.62
2017-09-03T01:59:35.010Z,-2.55
2017-09-03T02:00:35.028Z,-2.58
2017-09-03T02:01:35.049Z,-2.58
2017-09-03T02:02:35.072Z,-2.54
2017-09-03T02:03:35.091Z,-2.52
2017-09-03T02:04:35.119Z,-2.52
2017-09-03T02:05:35.135Z,-2.51
2017-09-03T02:06:35.160Z,-2.58
2017-09-03T02:07:35.174Z,-2.48
2017-09-03T02:08:35.195Z,-2.58
2017-09-03T02:09:35.216Z,-2.48
2017-09-03T02:10:35.240Z,-2.65
2017-09-03T02:11:35.262Z,-2.61
2017-09-03T02:12:35.283Z,-2.63
2017-09-03T02:13:35.298Z,-2.54
2017-09-03T02:14:35.320Z,-2.62
2017-09-03T02:15:35.341Z,-2.62
2017-09-03T02:16:35.362Z,-2.52
2017-09-03T02:17:35.382Z,-2.51
2017-09-03T02:18:35.409Z,-2.57
2017-09-03T02:19:35.425Z,-2.58
2017-09-03T02:20:35.448Z,-2.50
2017-09-03T02:21:35.465Z,-2.52
2017-09-03T02:22:35.488Z,-2.51
2017-09-03T02:23:35.510Z,-2.52
2017-09-03T02:24:35.552Z,-2.62
2017-09-03T02:25:35.549Z,-2.55
2017-09-03T02:26:35.572Z,-2.58
2017-09-03T02:27:35.591Z,-2.52
2017-09-03T02:28:35.615Z,-2.50
2017-09-03T02:29:35.635Z,-2.51
2017-09-03T02:30:35.656Z,-2.51
2017-09-03T02:31:35.678Z,-2.50
2017-09-03T02:32:35.695Z,-2.57
2017-09-03T02:33:35.717Z,-2.58
2017-09-03T02:34:35.737Z,-2.45
2017-09-03T02:35:35.760Z,-2.58
2017-09-03T02:36:35.781Z,-2.48
2017-09-03T02:37:35.799Z,-2.45
2017-09-03T02:38:35.824Z,-2.48
2017-09-03T02:39:35.843Z,-2.45
2017-09-03T02:40:35.864Z,-2.57
2017-09-03T02:41:35.884Z,-2.45
2017-09-03T02:42:35.903Z,-2.58
2017-09-03T02:43:35.925Z,-2.45
2017-09-03T02:44:35.948Z,-2.45
2017-09-03T02:45:35.968Z,-2.45
2017-09-03T02:46:35.989Z,-2.51
2017-09-03T02:47:36.011Z,-2.50
2017-09-03T02:48:36.033Z,-2.47
2017-09-03T02:49:36.053Z,-2.58
2017-09-03T02:50:36.072Z,-2.50
2017-09-03T02:51:36.099Z,-2.55
2017-09-03T02:52:36.113Z,-2.40
2017-09-03T02:53:36.135Z,-2.51
2017-09-03T02:54:36.158Z,-2.47
2017-09-03T02:55:36.179Z,-2.55
2017-09-03T02:56:36.199Z,-2.57
2017-09-03T02:57:36.217Z,-2.57
2017-09-03T02:58:36.237Z,-2.62
2017-09-03T02:59:36.258Z,-2.61
2017-09-03T03:00:36.279Z,-2.62
2017-09-03T03:01:36.301Z,-2.62
2017-09-03T03:02:36.320Z,-2.55
2017-09-03T03:03:36.342Z,-2.62
2017-09-03T03:04:36.363Z,-2.57
2017-09-03T03:05:36.382Z,-2.61
2017-09-03T03:06:36.406Z,-2.61
2017-09-03T03:07:36.425Z,-2.55
2017-09-03T03:08:36.448Z,-2.57
2017-09-03T03:09:36.470Z,-2.54
2017-09-03T03:10:36.487Z,-2.55
2017-09-03T03:11:36.509Z,-2.65
2017-09-03T03:12:36.530Z,-2.57
2017-09-03T03:13:36.558Z,-2.54
2017-09-03T03:14:36.569Z,-2.57
2017-09-03T03:15:36.591Z,-2.57
2017-09-03T03:16:36.612Z,-2.58
2017-09-03T03:17:36.634Z,-2.62
2017-09-03T03:18:36.654Z,-2.57
2017-09-03T03:19:36.676Z,-2.58
2017-09-03T03:20:36.694Z,-2.55
2017-09-03T03:21:36.718Z,-2.57
2017-09-03T03:22:36.736Z,-2.62
2017-09-03T03:23:36.758Z,-2.57
2017-09-03T03:24:36.777Z,-2.54
2017-09-03T03:25:36.801Z,-2.61
2017-09-03T03:26:36.821Z,-2.57
2017-09-03T03:27:36.839Z,-2.62
2017-09-03T03:28:36.863Z,-2.62
2017-09-03T03:29:36.881Z,-2.55
2017-09-03T03:30:36.906Z,-2.54
2017-09-03T03:31:36.922Z,-2.65
2017-09-03T03:32:36.946Z,-2.66
2017-09-03T03:33:36.970Z,-2.61
2017-09-03T03:34:36.986Z,-2.62
2017-09-03T03:35:37.005Z,-2.68
2017-09-03T03:36:37.028Z,-2.63
2017-09-03T03:37:37.047Z,-2.69
2017-09-03T03:38:37.070Z,-2.65
2017-09-03T03:39:37.089Z,-2.63
2017-09-03T03:40:37.112Z,-2.66
2017-09-03T03:41:37.132Z,-2.70
2017-09-03T03:42:37.150Z,-2.65
2017-09-03T03:43:37.172Z,-2.65
2017-09-03T03:44:37.191Z,-2.66
2017-09-03T03:45:37.213Z,-2.65
2017-09-03T03:46:37.233Z,-2.62
2017-09-03T03:47:37.253Z,-2.62
2017-09-03T03:48:37.277Z,-2.69
2017-09-03T03:49:37.297Z,-2.61
2017-09-03T03:50:37.316Z,-2.63
2017-09-03T03:51:37.338Z,-2.63
2017-09-03T03:52:37.357Z,-2.65
2017-09-03T03:53:37.377Z,-2.68
2017-09-03T03:54:37.398Z,-2.65
2017-09-03T03:55:37.419Z,-2.62
2017-09-03T03:56:37.442Z,-2.68
2017-09-03T03:57:37.461Z,-2.66
2017-09-03T03:58:37.483Z,-2.68
2017-09-03T03:59:37.501Z,-2.66
2017-09-03T04:00:37.523Z,-2.72
2017-09-03T04:01:37.544Z,-2.63
2017-09-03T04:02:37.566Z,-2.70
2017-09-03T04:03:37.584Z,-2.68
2017-09-03T04:04:37.607Z,-2.66
2017-09-03T04:05:37.625Z,-2.69
2017-09-03T04:06:37.648Z,-2.73
2017-09-03T04:07:37.669Z,-2.66
2017-09-03T04:08:37.687Z,-2.65
2017-09-03T04:09:37.707Z,-2.78
2017-09-03T04:10:37.729Z,-2.70
2017-09-03T04:11:37.752Z,-2.58
2017-09-03T04:12:37.772Z,-2.65
2017-09-03T04:13:37.793Z,-2.63
2017-09-03T04:14:37.814Z,-2.65
2017-09-03T04:15:37.833Z,-2.66
2017-09-03T04:16:37.855Z,-2.68
2017-09-03T04:17:37.873Z,-2.66
2017-09-03T04:18:37.894Z,-2.62
2017-09-03T04:19:37.915Z,-2.68
2017-09-03T04:20:37.941Z,-2.66
2017-09-03T04:21:37.958Z,-2.68
2017-09-03T04:22:37.978Z,-2.63
2017-09-03T04:23:37.999Z,-2.69
2017-09-03T04:24:38.020Z,-2.72
2017-09-03T04:25:38.039Z,-2.78
2017-09-03T04:26:38.059Z,-2.65
2017-09-03T04:27:38.082Z,-2.62
2017-09-03T04:28:38.105Z,-2.69
2017-09-03T04:29:38.120Z,-2.75
2017-09-03T04:30:38.144Z,-2.76
2017-09-03T04:31:38.162Z,-2.69
2017-09-03T04:32:38.185Z,-2.70
2017-09-03T04:33:38.207Z,-2.73
2017-09-03T04:34:38.223Z,-2.72
2017-09-03T04:35:38.245Z,-2.76
2017-09-03T04:36:38.265Z,-2.69
2017-09-03T04:37:38.287Z,-2.72
2017-09-03T04:38:38.306Z,-2.78
2017-09-03T04:39:38.330Z,-2.75
2017-09-03T04:40:38.350Z,-2.72
2017-09-03T04:41:38.370Z,-2.78
2017-09-03T04:42:38.391Z,-2.75
2017-09-03T04:43:38.441Z,-2.66
2017-09-03T04:44:38.429Z,-2.66
2017-09-03T04:45:38.449Z,-2.69
2017-09-03T04:46:38.469Z,-2.63
2017-09-03T04:47:38.493Z,-2.66
2017-09-03T04:48:38.515Z,-2.69
2017-09-03T04:49:38.531Z,-2.63
2017-09-03T04:50:38.554Z,-2.69
2017-09-03T04:51:38.576Z,-2.70
2017-09-03T04:52:38.594Z,-2.72
2017-09-03T04:53:38.613Z,-2.78
2017-09-03T04:54:38.637Z,-2.72
2017-09-03T04:55:38.655Z,-2.70
2017-09-03T04:56:38.676Z,-2.76
2017-09-03T04:57:38.696Z,-2.78
2017-09-03T04:58:38.716Z,-2.73
2017-09-03T04:59:38.737Z,-2.75
2017-09-03T05:00:38.758Z,-2.76
2017-09-03T05:01:38.780Z,-2.72
2017-09-03T05:02:38.799Z,-2.80
2017-09-03T05:03:38.821Z,-2.72
2017-09-03T05:04:38.839Z,-2.83
2017-09-03T05:05:38.862Z,-2.73
2017-09-03T05:06:38.880Z,-2.69
2017-09-03T05:07:38.901Z,-2.69
2017-09-03T05:08:38.924Z,-2.68
2017-09-03T05:09:38.945Z,-2.69
2017-09-03T05:10:38.965Z,-2.61
2017-09-03T05:11:38.982Z,-2.72
2017-09-03T05:12:39.003Z,-2.66
2017-09-03T05:13:39.026Z,-2.69
2017-09-03T05:14:39.049Z,-2.58
2017-09-03T05:15:39.067Z,-2.69
2017-09-03T05:16:39.086Z,-2.66
2017-09-03T05:17:39.108Z,-2.68
2017-09-03T05:18:39.131Z,-2.62
2017-09-03T05:19:39.148Z,-2.70
2017-09-03T05:20:39.168Z,-2.54
2017-09-03T05:21:39.190Z,-2.57
2017-09-03T05:22:39.211Z,-2.61
2017-09-03T05:23:39.230Z,-2.58
2017-09-03T05:24:39.251Z,-2.58
2017-09-03T05:25:39.270Z,-2.48
2017-09-03T05:26:39.292Z,-2.48
2017-09-03T05:27:39.312Z,-2.58
2017-09-03T05:28:39.333Z,-2.50
2017-09-03T05:29:39.353Z,-2.48
2017-09-03T05:30:39.376Z,-2.51
2017-09-03T05:31:39.398Z,-2.51
2017-09-03T05:32:39.418Z,-2.48
2017-09-03T05:33:39.436Z,-2.50
2017-09-03T05:34:39.460Z,-2.48
2017-09-03T05:35:39.480Z,-2.47
2017-09-03T05:36:39.499Z,-2.50
2017-09-03T05:37:39.518Z,-2.44
2017-09-03T05:38:39.541Z,-2.33
2017-09-03T05:39:39.561Z,-2.33
2017-09-03T05:40:39.585Z,-2.36
2017-09-03T05:41:39.602Z,-2.48
2017-09-03T05:42:39.625Z,-2.36
2017-09-03T05:43:39.644Z,-2.45
2017-09-03T05:44:39.665Z,-2.36
2017-09-03T05:45:39.687Z,-2.34
2017-09-03T05:46:39.708Z,-2.34
2017-09-03T05:47:39.729Z,-2.44
2017-09-03T05:48:39.748Z,-2.33
2017-09-03T05:49:39.768Z,-2.37
2017-09-03T05:50:39.794Z,-2.33
2017-09-03T05:51:39.812Z,-2.36
2017-09-03T05:52:39.831Z,-2.37
2017-09-03T05:53:39.852Z,-2.33
2017-09-03T05:54:39.872Z,-2.28
2017-09-03T05:55:39.895Z,-2.34
2017-09-03T05:56:39.917Z,-2.22
2017-09-03T05:57:39.934Z,-2.28
2017-09-03T05:58:39.956Z,-2.23
2017-09-03T05:59:39.978Z,-2.26
2017-09-03T06:00:39.997Z,-2.22
2017-09-03T06:01:40.020Z,-2.23
